createdAt,value
2022-10-06T00:00:48.090Z,101238.16
2022-10-06T00:03:16.593Z,101240.63
2022-10-06T00:05:44.310Z,101241.06
2022-10-06T00:08:12.253Z,101243.75
2022-10-06T00:10:39.990Z,101246.19
2022-10-06T00:13:08.221Z,101259.41
2022-10-06T00:15:37.334Z,101259.19
2022-10-06T00:18:05.143Z,101266.63
2022-10-06T00:20:32.869Z,101268.88
2022-10-06T00:23:00.454Z,101267.00
2022-10-06T00:25:29.122Z,101276.47
2022-10-06T00:27:56.852Z,101287.38
2022-10-06T00:30:26.885Z,101286.94
2022-10-06T00:32:57.723Z,101292.66
2022-10-06T00:35:26.432Z,101288.72
2022-10-06T00:37:54.028Z,101286.66
2022-10-06T00:40:22.318Z,101285.56
2022-10-06T00:42:53.792Z,101292.97
2022-10-06T00:45:27.481Z,101281.22
2022-10-06T00:48:01.537Z,101273.13
2022-10-06T00:50:29.725Z,101272.53
2022-10-06T00:52:57.494Z,101277.44
2022-10-06T00:55:25.927Z,101287.72
2022-10-06T00:57:53.910Z,101297.78
2022-10-06T01:00:21.854Z,101300.88
2022-10-06T01:02:53.424Z,101308.28
2022-10-06T01:05:27.526Z,101321.84
2022-10-06T01:07:55.314Z,101323.50
2022-10-06T01:10:23.250Z,101318.38
2022-10-06T01:12:52.025Z,101323.34
2022-10-06T01:15:20.981Z,101317.59
2022-10-06T01:17:54.713Z,101319.03
2022-10-06T01:20:24.380Z,101332.25
2022-10-06T01:22:58.287Z,101341.72
2022-10-06T01:25:26.041Z,101353.00
2022-10-06T01:27:54.938Z,101354.88
2022-10-06T01:30:26.758Z,101364.31
2022-10-06T01:32:54.605Z,101371.47
2022-10-06T01:35:22.638Z,101378.41
2022-10-06T01:37:50.222Z,101387.06
2022-10-06T01:40:19.348Z,101392.81
2022-10-06T01:42:47.026Z,101396.91
2022-10-06T01:45:14.563Z,101407.34
2022-10-06T01:47:42.424Z,101406.50
2022-10-06T01:50:10.649Z,101424.53
2022-10-06T01:52:38.356Z,101417.72
2022-10-06T01:55:07.125Z,101413.31
2022-10-06T01:57:40.664Z,101412.03
2022-10-06T02:00:09.980Z,101426.81
2022-10-06T02:02:37.707Z,101423.47
2022-10-06T02:05:06.073Z,101425.53
2022-10-06T02:07:35.341Z,101425.06
2022-10-06T02:10:03.247Z,101425.47
2022-10-06T02:12:31.662Z,101432.47
2022-10-06T02:15:00.593Z,101432.00
2022-10-06T02:17:28.487Z,101433.22
2022-10-06T02:19:56.052Z,101445.75
2022-10-06T02:22:23.670Z,101435.06
2022-10-06T02:24:51.239Z,101435.53
2022-10-06T02:27:18.766Z,101442.25
2022-10-06T02:29:46.311Z,101441.63
2022-10-06T02:32:15.538Z,101436.03
2022-10-06T02:34:43.759Z,101451.22
2022-10-06T02:37:12.976Z,101448.72
2022-10-06T02:39:40.503Z,101463.31
2022-10-06T02:42:08.241Z,101452.25
2022-10-06T02:44:35.944Z,101457.59
2022-10-06T02:47:03.498Z,101475.91
2022-10-06T02:49:32.394Z,101468.34
2022-10-06T02:51:59.918Z,101483.84
2022-10-06T02:54:27.429Z,101481.81
2022-10-06T02:56:54.958Z,101499.94
2022-10-06T02:59:22.486Z,101500.59
2022-10-06T03:01:50.173Z,101510.25
2022-10-06T03:04:17.763Z,101507.22
2022-10-06T03:06:46.686Z,101525.75
2022-10-06T03:09:14.222Z,101524.94
2022-10-06T03:11:43.517Z,101524.09
2022-10-06T03:14:11.601Z,101522.25
2022-10-06T03:16:41.145Z,101532.13
2022-10-06T03:19:10.306Z,101534.31
2022-10-06T03:21:39.661Z,101550.13
2022-10-06T03:24:08.629Z,101556.84
2022-10-06T03:26:38.446Z,101561.75
2022-10-06T03:29:11.168Z,101562.13
2022-10-06T03:31:40.148Z,101565.16
2022-10-06T03:34:07.958Z,101570.88
2022-10-06T03:36:36.410Z,101576.13
2022-10-06T03:39:06.254Z,101583.50
2022-10-06T03:41:37.053Z,101578.72
2022-10-06T03:44:06.311Z,101588.94
2022-10-06T03:46:35.747Z,101599.00
2022-10-06T03:49:03.849Z,101595.84
2022-10-06T03:51:33.268Z,101605.69
2022-10-06T03:54:01.462Z,101599.72
2022-10-06T03:56:30.737Z,101606.06
2022-10-06T03:59:00.834Z,101600.94
2022-10-06T04:01:31.072Z,101600.22
2022-10-06T04:04:00.731Z,101613.59
2022-10-06T04:06:30.174Z,101614.97
2022-10-06T04:08:58.037Z,101623.16
2022-10-06T04:11:27.581Z,101621.69
2022-10-06T04:14:00.387Z,101626.19
2022-10-06T04:16:29.555Z,101630.53
2022-10-06T04:18:58.598Z,101628.03
2022-10-06T04:21:27.692Z,101641.22
2022-10-06T04:23:55.688Z,101650.06
2022-10-06T04:26:25.933Z,101665.06
2022-10-06T04:28:54.390Z,101669.63
2022-10-06T04:31:26.521Z,101672.09
2022-10-06T04:33:57.077Z,101677.63
2022-10-06T04:36:26.582Z,101673.44
2022-10-06T04:38:58.157Z,101686.44
2022-10-06T04:41:28.758Z,101689.78
2022-10-06T04:43:56.779Z,101697.25
2022-10-06T04:46:43.636Z,101705.13
2022-10-06T04:49:18.960Z,101710.13
2022-10-06T04:51:47.781Z,101722.28
2022-10-06T04:54:15.306Z,101725.78
2022-10-06T04:56:42.866Z,101722.91
2022-10-06T04:59:10.413Z,101727.06
2022-10-06T05:01:39.466Z,101730.56
2022-10-06T05:04:07.504Z,101739.22
2022-10-06T05:06:36.661Z,101744.56
2022-10-06T05:09:06.275Z,101742.94
2022-10-06T05:11:34.246Z,101754.63
2022-10-06T05:14:02.595Z,101754.81
2022-10-06T05:16:32.040Z,101759.34
2022-10-06T05:19:01.186Z,101759.97
2022-10-06T05:21:31.022Z,101771.13
2022-10-06T05:23:59.119Z,101777.81
2022-10-06T05:26:29.116Z,101782.78
2022-10-06T05:28:56.837Z,101790.63
2022-10-06T05:31:26.963Z,101808.31
2022-10-06T05:33:55.291Z,101800.09
2022-10-06T05:36:26.383Z,101809.16
2022-10-06T05:38:53.968Z,101811.63
2022-10-06T05:41:23.921Z,101816.97
2022-10-06T05:43:51.981Z,101824.34
2022-10-06T05:46:22.581Z,101827.69
2022-10-06T05:48:51.698Z,101829.34
2022-10-06T05:51:21.128Z,101834.97
2022-10-06T05:53:50.202Z,101823.75
2022-10-06T05:56:19.105Z,101833.06
2022-10-06T05:58:48.446Z,101847.19
2022-10-06T06:01:18.475Z,101844.28
2022-10-06T06:03:49.658Z,101857.03
2022-10-06T06:06:18.900Z,101856.31
2022-10-06T06:08:47.384Z,101866.28
2022-10-06T06:11:16.250Z,101866.41
2022-10-06T06:13:43.805Z,101879.06
2022-10-06T06:16:14.726Z,101880.63
2022-10-06T06:18:42.544Z,101883.75
2022-10-06T06:21:11.233Z,101890.78
2022-10-06T06:23:40.717Z,101903.06
2022-10-06T06:26:09.821Z,101905.19
2022-10-06T06:28:40.690Z,101915.81
2022-10-06T06:31:10.185Z,101924.13
2022-10-06T06:33:39.612Z,101921.56
2022-10-06T06:36:14.834Z,101922.22
2022-10-06T06:38:42.779Z,101925.81
2022-10-06T06:41:18.429Z,101937.44
2022-10-06T06:43:47.926Z,101950.47
2022-10-06T06:46:17.408Z,101945.31
2022-10-06T06:48:45.414Z,101936.50
2022-10-06T06:51:12.954Z,101955.88
2022-10-06T06:53:41.118Z,101949.41
2022-10-06T06:56:10.126Z,101951.28
2022-10-06T06:58:37.862Z,101966.41
2022-10-06T07:01:08.808Z,101973.06
2022-10-06T07:03:56.491Z,101976.94
2022-10-06T07:06:28.109Z,101970.84
2022-10-06T07:08:57.055Z,101986.09
2022-10-06T07:11:26.578Z,101995.38
2022-10-06T07:13:55.403Z,101991.22
2022-10-06T07:16:42.203Z,101984.44
2022-10-06T07:19:29.561Z,102002.19
2022-10-06T07:22:17.084Z,101993.13
2022-10-06T07:25:02.990Z,102003.34
2022-10-06T07:27:31.231Z,102006.09
2022-10-06T07:29:58.825Z,102005.94
2022-10-06T07:32:30.770Z,102017.94
2022-10-06T07:34:59.103Z,102014.41
2022-10-06T07:37:26.970Z,102022.44
2022-10-06T07:39:54.518Z,102024.47
2022-10-06T07:42:22.311Z,102033.19
2022-10-06T07:45:04.191Z,102026.94
2022-10-06T07:47:33.233Z,102046.00
2022-10-06T07:50:01.147Z,102054.25
2022-10-06T07:52:29.503Z,102055.63
2022-10-06T07:54:58.234Z,102059.34
2022-10-06T07:57:26.808Z,102063.84
2022-10-06T07:59:55.019Z,102072.34
2022-10-06T08:02:28.297Z,102074.88
2022-10-06T08:04:59.167Z,102078.03
2022-10-06T08:07:27.915Z,102092.31
2022-10-06T08:09:55.556Z,102080.16
2022-10-06T08:12:37.356Z,102089.50
2022-10-06T08:15:07.520Z,102091.84
2022-10-06T08:17:36.360Z,102087.56
2022-10-06T08:20:06.852Z,102089.81
2022-10-06T08:22:36.077Z,102093.75
2022-10-06T08:25:06.799Z,102105.75
2022-10-06T08:27:35.792Z,102115.56
2022-10-06T08:30:03.922Z,102108.16
2022-10-06T08:32:32.097Z,102113.97
2022-10-06T08:34:59.727Z,102125.47
2022-10-06T08:37:28.660Z,102123.47
2022-10-06T08:39:57.134Z,102128.91
2022-10-06T08:42:32.869Z,102128.91
2022-10-06T08:45:03.208Z,102148.38
2022-10-06T08:47:35.600Z,102137.44
2022-10-06T08:50:05.906Z,102143.59
2022-10-06T08:52:51.045Z,102153.34
2022-10-06T08:55:32.433Z,102164.25
2022-10-06T09:00:44.291Z,102179.47
2022-10-06T09:03:23.921Z,102186.44
2022-10-06T09:05:53.764Z,102186.91
2022-10-06T09:08:41.954Z,102185.88
2022-10-06T09:11:23.121Z,102187.34
2022-10-06T09:13:57.095Z,102202.69
2022-10-06T09:16:29.745Z,102209.78
2022-10-06T09:19:08.639Z,102205.41
2022-10-06T09:21:42.248Z,102208.75
2022-10-06T09:24:16.424Z,102214.94
2022-10-06T09:26:46.975Z,102214.53
2022-10-06T09:29:15.160Z,102224.31
2022-10-06T09:31:48.833Z,102226.16
2022-10-06T09:34:38.350Z,102229.88
2022-10-06T09:37:09.211Z,102220.50
2022-10-06T09:39:40.214Z,102226.31
2022-10-06T09:42:14.336Z,102229.69
2022-10-06T09:44:50.984Z,102236.34
2022-10-06T09:47:35.562Z,102236.78
2022-10-06T09:50:05.479Z,102249.59
2022-10-06T09:52:33.058Z,102253.00
2022-10-06T09:55:12.328Z,102250.75
2022-10-06T09:57:48.001Z,102259.47
2022-10-06T10:00:29.524Z,102256.94
2022-10-06T10:02:59.806Z,102268.53
2022-10-06T10:05:30.036Z,102268.25
2022-10-06T10:08:10.098Z,102268.97
2022-10-06T10:10:38.991Z,102278.28
2022-10-06T10:13:20.621Z,102287.81
2022-10-06T10:15:54.672Z,102272.81
2022-10-06T10:18:26.723Z,102276.50
2022-10-06T10:20:58.282Z,102291.44
2022-10-06T10:23:31.988Z,102279.75
2022-10-06T10:26:31.572Z,102287.19
2022-10-06T10:29:15.088Z,102285.81
2022-10-06T10:31:51.147Z,102292.16
2022-10-06T10:34:35.361Z,102298.22
2022-10-06T10:37:07.106Z,102300.06
2022-10-06T10:39:39.311Z,102304.16
2022-10-06T10:42:18.142Z,102308.00
2022-10-06T10:44:52.537Z,102309.16
2022-10-06T10:47:27.714Z,102303.91
2022-10-06T10:50:04.190Z,102313.97
2022-10-06T10:52:37.944Z,102306.09
2022-10-06T10:55:21.767Z,102311.16
2022-10-06T10:57:51.572Z,102327.09
2022-10-06T11:00:21.893Z,102320.22
2022-10-06T11:02:50.733Z,102322.16
2022-10-06T11:05:40.330Z,102333.00
2022-10-06T11:08:15.323Z,102341.94
2022-10-06T11:10:48.595Z,102335.19
2022-10-06T11:13:27.710Z,102335.84
2022-10-06T11:16:08.778Z,102337.44
2022-10-06T11:18:47.886Z,102342.94
2022-10-06T11:21:19.023Z,102343.78
2022-10-06T11:23:58.258Z,102344.19
2022-10-06T11:26:41.421Z,102352.94
2022-10-06T11:29:26.165Z,102351.25
2022-10-06T11:32:04.174Z,102340.88
2022-10-06T11:34:31.714Z,102349.59
2022-10-06T11:37:07.616Z,102357.50
2022-10-06T11:39:44.640Z,102356.03
2022-10-06T11:42:21.762Z,102373.91
2022-10-06T11:44:58.954Z,102369.34
2022-10-06T11:47:35.605Z,102362.47
2022-10-06T11:50:03.898Z,102372.22
2022-10-06T11:52:55.746Z,102359.78
2022-10-06T11:55:26.238Z,102363.31
2022-10-06T11:58:29.837Z,102355.41
2022-10-06T12:00:56.822Z,102356.25
2022-10-06T12:04:09.406Z,102363.72
2022-10-06T12:07:07.027Z,102374.31
2022-10-06T12:09:51.682Z,102367.25
2022-10-06T12:12:47.811Z,102378.25
2022-10-06T12:18:42.804Z,102388.44
2022-10-06T12:21:44.806Z,102360.41
2022-10-06T12:24:41.794Z,102376.59
2022-10-06T12:27:26.267Z,102381.34
2022-10-06T12:30:01.560Z,102368.28
2022-10-06T12:32:47.383Z,102385.94
2022-10-06T12:35:24.735Z,102385.53
2022-10-06T12:37:54.696Z,102380.06
2022-10-06T12:40:51.473Z,102375.94
2022-10-06T12:43:47.474Z,102385.22
2022-10-06T12:46:21.992Z,102399.34
2022-10-06T12:49:01.162Z,102397.06
2022-10-06T12:51:34.452Z,102394.53
2022-10-06T12:54:08.952Z,102395.75
2022-10-06T12:56:38.779Z,102401.22
2022-10-06T12:59:24.589Z,102411.78
2022-10-06T13:01:54.660Z,102406.41
2022-10-06T13:04:37.562Z,102409.34
2022-10-06T13:07:12.369Z,102398.56
2022-10-06T13:09:39.887Z,102407.69
2022-10-06T13:12:30.090Z,102419.06
2022-10-06T13:15:22.028Z,102418.53
2022-10-06T13:17:52.497Z,102419.66
2022-10-06T13:20:23.442Z,102418.09
2022-10-06T13:23:00.532Z,102417.03
2022-10-06T13:25:35.410Z,102429.84
2022-10-06T13:28:03.327Z,102410.88
2022-10-06T13:30:34.927Z,102424.09
2022-10-06T13:33:05.383Z,102429.00
2022-10-06T13:35:33.006Z,102438.44
2022-10-06T13:38:03.942Z,102424.16
2022-10-06T13:40:44.114Z,102431.28
2022-10-06T13:43:18.237Z,102431.00
2022-10-06T13:45:48.270Z,102431.22
2022-10-06T13:48:20.125Z,102445.59
2022-10-06T13:50:49.898Z,102429.53
2022-10-06T13:53:28.262Z,102436.28
2022-10-06T13:55:56.216Z,102444.97
2022-10-06T13:58:28.056Z,102449.66
2022-10-06T14:00:57.992Z,102452.75
2022-10-06T14:03:29.200Z,102455.88
2022-10-06T14:06:14.362Z,102455.50
2022-10-06T14:08:46.919Z,102451.44
2022-10-06T14:11:14.496Z,102454.28
2022-10-06T14:13:54.270Z,102462.03
2022-10-06T14:16:24.050Z,102460.13
2022-10-06T14:18:56.645Z,102463.09
2022-10-06T14:21:35.596Z,102467.81
2022-10-06T14:24:07.813Z,102454.81
2022-10-06T14:26:37.904Z,102466.81
2022-10-06T14:29:05.742Z,102471.75
2022-10-06T14:31:33.998Z,102462.66
2022-10-06T14:34:02.231Z,102472.88
2022-10-06T14:36:31.441Z,102462.72
2022-10-06T14:39:00.642Z,102469.09
2022-10-06T14:41:31.103Z,102493.53
2022-10-06T14:44:01.515Z,102484.03
2022-10-06T14:46:30.059Z,102481.22
2022-10-06T14:48:58.045Z,102469.38
2022-10-06T14:51:27.090Z,102490.56
2022-10-06T14:53:56.444Z,102477.63
2022-10-06T14:56:25.391Z,102485.34
2022-10-06T14:58:54.287Z,102474.38
2022-10-06T15:01:24.790Z,102490.53
2022-10-06T15:03:53.107Z,102474.31
2022-10-06T15:06:38.170Z,102492.81
2022-10-06T15:09:06.725Z,102477.84
2022-10-06T15:11:34.391Z,102491.00
2022-10-06T15:14:04.101Z,102490.09
2022-10-06T15:16:34.038Z,102482.50
2022-10-06T15:19:04.494Z,102481.56
2022-10-06T15:21:33.032Z,102489.16
2022-10-06T15:24:02.815Z,102492.38
2022-10-06T15:26:49.000Z,102486.09
2022-10-06T15:29:18.661Z,102500.94
2022-10-06T15:31:53.001Z,102485.53
2022-10-06T15:34:24.290Z,102498.03
2022-10-06T15:36:52.998Z,102494.59
2022-10-06T15:39:23.576Z,102486.53
2022-10-06T15:41:51.953Z,102496.66
2022-10-06T15:44:21.427Z,102483.03
2022-10-06T15:46:51.357Z,102484.13
2022-10-06T15:49:21.026Z,102489.94
2022-10-06T15:51:50.083Z,102494.88
2022-10-06T15:54:20.119Z,102504.13
2022-10-06T15:56:48.499Z,102495.13
2022-10-06T15:59:16.131Z,102495.38
2022-10-06T16:01:47.067Z,102494.28
2022-10-06T16:04:23.983Z,102501.25
2022-10-06T16:06:55.293Z,102497.78
2022-10-06T16:09:24.778Z,102501.38
2022-10-06T16:11:52.931Z,102499.41
2022-10-06T16:14:20.796Z,102507.97
2022-10-06T16:16:50.051Z,102508.22
2022-10-06T16:19:18.920Z,102495.50
2022-10-06T16:21:48.949Z,102510.44
2022-10-06T16:24:17.060Z,102516.50
2022-10-06T16:26:45.932Z,102515.72
2022-10-06T16:29:13.530Z,102516.31
2022-10-06T16:31:41.208Z,102505.09
2022-10-06T16:34:10.164Z,102514.34
2022-10-06T16:36:38.067Z,102513.69
2022-10-06T16:39:06.898Z,102525.44
2022-10-06T16:41:35.038Z,102535.03
2022-10-06T16:44:03.614Z,102529.81
2022-10-06T16:46:32.596Z,102529.50
2022-10-06T16:49:01.832Z,102531.53
2022-10-06T16:51:32.719Z,102528.50
2022-10-06T16:54:01.862Z,102536.72
2022-10-06T16:56:30.767Z,102539.91
2022-10-06T16:59:00.336Z,102543.97
2022-10-06T17:01:29.469Z,102541.97
2022-10-06T17:04:02.709Z,102537.59
2022-10-06T17:06:32.530Z,102537.94
2022-10-06T17:09:00.237Z,102537.63
2022-10-06T17:11:27.845Z,102540.63
2022-10-06T17:13:57.810Z,102543.78
2022-10-06T17:16:29.337Z,102542.63
2022-10-06T17:18:58.462Z,102538.97
2022-10-06T17:21:45.010Z,102534.09
2022-10-06T17:24:17.449Z,102543.63
2022-10-06T17:26:47.143Z,102542.28
2022-10-06T17:29:17.455Z,102541.63
2022-10-06T17:31:45.241Z,102529.56
2022-10-06T17:34:20.055Z,102537.94
2022-10-06T17:36:50.724Z,102537.44
2022-10-06T17:39:21.794Z,102546.81
2022-10-06T17:41:51.365Z,102540.78
2022-10-06T17:44:22.666Z,102548.31
2022-10-06T17:46:52.440Z,102537.59
2022-10-06T17:49:21.455Z,102550.47
2022-10-06T17:51:50.378Z,102544.28
2022-10-06T17:54:20.890Z,102548.78
2022-10-06T17:56:50.074Z,102542.97
2022-10-06T17:59:19.855Z,102552.97
2022-10-06T18:01:47.453Z,102556.66
2022-10-06T18:04:16.457Z,102553.28
2022-10-06T18:06:45.355Z,102558.97
2022-10-06T18:09:13.236Z,102565.50
2022-10-06T18:11:43.282Z,102573.00
2022-10-06T18:14:12.593Z,102564.47
2022-10-06T18:16:43.281Z,102559.44
2022-10-06T18:19:13.295Z,102566.16
2022-10-06T18:21:42.352Z,102565.44
2022-10-06T18:24:15.181Z,102576.16
2022-10-06T18:26:44.481Z,102571.97
2022-10-06T18:29:12.546Z,102567.63
2022-10-06T18:31:40.480Z,102561.59
2022-10-06T18:36:56.838Z,102564.59
2022-10-06T18:39:25.395Z,102571.81
2022-10-06T18:41:55.117Z,102563.25
2022-10-06T18:44:36.762Z,102563.59
2022-10-06T18:47:33.748Z,102557.88
2022-10-06T18:50:01.278Z,102554.00
2022-10-06T18:52:28.819Z,102557.38
2022-10-06T18:54:56.420Z,102555.84
2022-10-06T18:57:27.872Z,102555.16
2022-10-06T18:59:55.741Z,102557.84
2022-10-06T19:02:23.340Z,102563.50
2022-10-06T19:04:51.534Z,102553.00
2022-10-06T19:07:19.319Z,102561.00
2022-10-06T19:09:47.534Z,102556.47
2022-10-06T19:12:15.253Z,102567.16
2022-10-06T19:14:47.681Z,102558.47
2022-10-06T19:17:16.167Z,102571.00
2022-10-06T19:19:45.234Z,102566.81
2022-10-06T19:22:14.722Z,102564.47
2022-10-06T19:24:44.347Z,102568.97
2022-10-06T19:27:15.050Z,102576.19
2022-10-06T19:29:46.825Z,102566.63
2022-10-06T19:32:16.886Z,102565.13
2022-10-06T19:34:44.767Z,102551.09
2022-10-06T19:37:12.630Z,102560.94
2022-10-06T19:39:42.741Z,102562.94
2022-10-06T19:42:28.525Z,102556.03
2022-10-06T19:44:57.751Z,102561.38
2022-10-06T19:47:25.350Z,102555.19
2022-10-06T19:49:57.891Z,102560.69
2022-10-06T19:52:26.994Z,102559.84
2022-10-06T19:54:54.566Z,102557.19
2022-10-06T19:57:22.126Z,102559.03
2022-10-06T19:59:50.854Z,102558.34
2022-10-06T20:02:19.772Z,102563.00
2022-10-06T20:04:47.303Z,102557.00
2022-10-06T20:07:14.824Z,102564.19
2022-10-06T20:09:42.433Z,102553.94
2022-10-06T20:12:09.946Z,102562.81
2022-10-06T20:14:37.738Z,102558.75
2022-10-06T20:17:05.807Z,102572.44
2022-10-06T20:19:35.990Z,102568.25
2022-10-06T20:22:03.590Z,102573.59
2022-10-06T20:24:31.795Z,102573.59
2022-10-06T20:26:59.430Z,102571.25
2022-10-06T20:29:28.284Z,102582.25
2022-10-06T20:31:58.704Z,102579.06
2022-10-06T20:34:31.476Z,102595.41
2022-10-06T20:37:02.201Z,102588.53
2022-10-06T20:39:48.586Z,102584.34
2022-10-06T20:42:16.617Z,102587.50
2022-10-06T20:44:44.699Z,102580.63
2022-10-06T20:47:13.126Z,102584.28
2022-10-06T20:49:42.263Z,102581.09
2022-10-06T20:52:14.310Z,102582.25
2022-10-06T20:54:41.992Z,102590.38
2022-10-06T20:57:09.947Z,102590.69
2022-10-06T20:59:37.782Z,102589.19
2022-10-06T21:02:07.064Z,102589.66
2022-10-06T21:04:34.905Z,102590.63
2022-10-06T21:07:05.573Z,102590.81
2022-10-06T21:09:34.784Z,102589.13
2022-10-06T21:12:04.347Z,102588.13
2022-10-06T21:14:33.880Z,102590.63
2022-10-06T21:17:01.640Z,102587.97
2022-10-06T21:19:29.820Z,102577.28
2022-10-06T21:21:57.348Z,102577.47
2022-10-06T21:24:25.111Z,102581.13
2022-10-06T21:26:54.149Z,102577.59
2022-10-06T21:29:21.919Z,102567.94
2022-10-06T21:31:49.464Z,102567.94
2022-10-06T21:34:16.985Z,102567.75
2022-10-06T21:36:44.757Z,102559.63
2022-10-06T21:39:13.449Z,102561.28
2022-10-06T21:41:41.156Z,102547.25
2022-10-06T21:44:11.461Z,102547.94
2022-10-06T21:46:41.464Z,102551.63
2022-10-06T21:49:12.036Z,102550.78
2022-10-06T21:51:41.379Z,102538.09
2022-10-06T21:54:10.342Z,102539.06
2022-10-06T21:56:38.950Z,102540.75
2022-10-06T21:59:06.756Z,102534.44
2022-10-06T22:01:37.726Z,102539.91
2022-10-06T22:04:06.096Z,102530.09
2022-10-06T22:06:35.996Z,102532.75
2022-10-06T22:09:05.188Z,102531.91
2022-10-06T22:11:35.056Z,102527.72
2022-10-06T22:14:33.416Z,102530.41
2022-10-06T22:17:04.740Z,102526.75
2022-10-06T22:19:32.267Z,102520.69
2022-10-06T22:21:59.792Z,102523.53
2022-10-06T22:24:27.344Z,102535.19
2022-10-06T22:26:54.864Z,102533.53
2022-10-06T22:29:22.771Z,102532.00
2022-10-06T22:31:50.358Z,102535.69
2022-10-06T22:34:20.828Z,102531.50
2022-10-06T22:36:48.426Z,102529.94
2022-10-06T22:39:16.485Z,102526.78
2022-10-06T22:41:44.013Z,102525.22
2022-10-06T22:44:11.700Z,102521.88
2022-10-06T22:46:39.321Z,102518.53
2022-10-06T22:49:07.943Z,102518.00
2022-10-06T22:51:37.148Z,102519.00
2022-10-06T22:54:05.042Z,102516.50
2022-10-06T22:56:33.937Z,102518.31
2022-10-06T23:06:31.016Z,102506.25
2022-10-06T23:09:00.316Z,102503.91
2022-10-06T23:11:28.328Z,102506.88
2022-10-06T23:13:55.900Z,102501.53
2022-10-06T23:16:23.952Z,102507.06
2022-10-06T23:18:52.054Z,102502.03
2022-10-06T23:21:22.899Z,102498.69
2022-10-06T23:23:52.277Z,102498.97
2022-10-06T23:26:22.296Z,102495.59
2022-10-06T23:28:52.788Z,102490.44
2022-10-06T23:31:20.426Z,102494.78
2022-10-06T23:33:48.145Z,102489.44
2022-10-06T23:36:15.728Z,102487.06
2022-10-06T23:38:44.439Z,102489.91
2022-10-06T23:41:12.194Z,102485.56
2022-10-06T23:43:41.093Z,102488.53
2022-10-06T23:46:08.959Z,102486.03
2022-10-06T23:48:37.305Z,102486.03
2022-10-06T23:51:06.740Z,102480.03
2022-10-06T23:53:34.710Z,102487.47
2022-10-06T23:56:02.319Z,102485.97
2022-10-06T23:58:29.834Z,102488.94
